Aviation Digital Data Service (ADDS)

Output produced by METARs form (2051 UTC 24 June 2018)
found at http://www.aviationweather.gov/adds/metars/
 
LHSM 241945Z 28001KT CAVOK 14/13 Q1018
TAF AMD LHSM 241436Z 2414/2421 VRB03KT CAVOK 
     TEMPO 2414/2417 VRB10G20KT 5000 SHRA BKN033CB
       
LHBC 241745Z 28004KT 9999 -SHRA SCT030TCU SCT083 19/11 Q1017
LHBP 242030Z 27004KT CAVOK 16/10 Q1017 NOSIG
TAF LHBP 241715Z 2418/2518 30008KT CAVOK 
     BECMG 2418/2420 VRB03KT 
     BECMG 2506/2508 31006KT SCT040 BKN150 
     TEMPO 2509/2515 23006KT 
     BECMG 2510/2512 CAVOK 
     TEMPO 2512/2518 SHRA SCT050TCU BKN075
       
LHDC 242015Z 27001KT CAVOK 15/10 Q1017 NOSIG
TAF LHDC 242015Z 2421/2506 VRB03KT CAVOK 
     TEMPO 2421/2506 SCT030 BKN050
       
LHKE 242015Z 00000KT CAVOK 15/10 Q1017 NOSIG RMK BLU
TAF LHKE 242015Z 2421/2506 VRB03KT CAVOK
       
LHPA 242015Z 17002KT CAVOK 13/11 Q1018 NOSIG RMK BLU
TAF LHPA 241715Z 2418/2518 32007KT CAVOK 
     BECMG 2420/2422 VRB03KT 
     BECMG 2503/2506 35009KT 
     TEMPO 2501/2509 8000 -RA -SHRA BKN030 BKN080
       
LHPP 241645Z 32006KT 9999 FEW046 BKN083 19/08 Q1019
TAF LHPP 241415Z 2415/2424 33006KT CAVOK 
     BECMG 2415/2418 VRB03KT
       
LHPR 242015Z AUTO VRB01KT CAVOK 13/11 Q1017 RMK BLU
TAF LHPR 241715Z 2418/2503 29006KT CAVOK 
     TEMPO 2423/2503 SCT033 BKN060
       
LHSM 241945Z 28001KT CAVOK 14/13 Q1018
TAF AMD LHSM 241436Z 2414/2421 VRB03KT CAVOK 
     TEMPO 2414/2417 VRB10G20KT 5000 SHRA BKN033CB
       
LHSN 242015Z 28004KT CAVOK 15/08 Q1017 NOSIG RMK BLU
TAF LHSN 242015Z 2421/2506 VRB03KT CAVOK
       
LHUD 241945Z /////KT CAVOK Q
LHDC 242015Z 27001KT CAVOK 15/10 Q1017 NOSIG
TAF LHDC 242015Z 2421/2506 VRB03KT CAVOK 
     TEMPO 2421/2506 SCT030 BKN050
       
LHBP 242030Z 27004KT CAVOK 16/10 Q1017 NOSIG
TAF LHBP 241715Z 2418/2518 30008KT CAVOK 
     BECMG 2418/2420 VRB03KT 
     BECMG 2506/2508 31006KT SCT040 BKN150 
     TEMPO 2509/2515 23006KT 
     BECMG 2510/2512 CAVOK 
     TEMPO 2512/2518 SHRA SCT050TCU BKN075
       
LHKE 242015Z 00000KT CAVOK 15/10 Q1017 NOSIG RMK BLU
TAF LHKE 242015Z 2421/2506 VRB03KT CAVOK
       
LHPA 242015Z 17002KT CAVOK 13/11 Q1018 NOSIG RMK BLU
TAF LHPA 241715Z 2418/2518 32007KT CAVOK 
     BECMG 2420/2422 VRB03KT 
     BECMG 2503/2506 35009KT 
     TEMPO 2501/2509 8000 -RA -SHRA BKN030 BKN080
       
LHSN 242015Z 28004KT CAVOK 15/08 Q1017 NOSIG RMK BLU
TAF LHSN 242015Z 2421/2506 VRB03KT CAVOK